sensor_id;sensor_type;location;lat;lon;timestamp;P1;durP1;ratioP1;P2;durP2;ratioP2
14732;SDS011;7457;50.960;6.830;2022-09-01T00:00:52;4.43;;;3.60;;
14732;SDS011;7457;50.960;6.830;2022-09-01T00:03:19;5.28;;;4.22;;
14732;SDS011;7457;50.960;6.830;2022-09-01T00:05:49;4.43;;;3.80;;
14732;SDS011;7457;50.960;6.830;2022-09-01T00:08:21;4.53;;;4.10;;
14732;SDS011;7457;50.960;6.830;2022-09-01T00:10:47;5.18;;;3.78;;
14732;SDS011;7457;50.960;6.830;2022-09-01T00:13:14;4.80;;;4.22;;
14732;SDS011;7457;50.960;6.830;2022-09-01T00:15:41;6.68;;;4.07;;
14732;SDS011;7457;50.960;6.830;2022-09-01T00:18:07;5.30;;;4.15;;
14732;SDS011;7457;50.960;6.830;2022-09-01T00:20:32;4.78;;;3.92;;
14732;SDS011;7457;50.960;6.830;2022-09-01T00:22:58;4.88;;;3.88;;
14732;SDS011;7457;50.960;6.830;2022-09-01T00:25:27;4.65;;;3.88;;
14732;SDS011;7457;50.960;6.830;2022-09-01T00:27:53;4.43;;;4.03;;
14732;SDS011;7457;50.960;6.830;2022-09-01T00:30:19;4.78;;;3.97;;
14732;SDS011;7457;50.960;6.830;2022-09-01T00:32:45;6.55;;;4.15;;
14732;SDS011;7457;50.960;6.830;2022-09-01T00:35:13;4.35;;;3.70;;
14732;SDS011;7457;50.960;6.830;2022-09-01T00:37:41;4.10;;;3.70;;
14732;SDS011;7457;50.960;6.830;2022-09-01T00:40:07;5.38;;;3.42;;
14732;SDS011;7457;50.960;6.830;2022-09-01T00:42:36;5.72;;;4.07;;
14732;SDS011;7457;50.960;6.830;2022-09-01T00:45:03;4.57;;;4.18;;
14732;SDS011;7457;50.960;6.830;2022-09-01T00:47:30;6.43;;;4.00;;
14732;SDS011;7457;50.960;6.830;2022-09-01T00:49:56;5.32;;;4.22;;
14732;SDS011;7457;50.960;6.830;2022-09-01T00:52:29;8.05;;;5.07;;
14732;SDS011;7457;50.960;6.830;2022-09-01T00:55:00;5.07;;;4.47;;
14732;SDS011;7457;50.960;6.830;2022-09-01T00:57:31;4.80;;;4.30;;
14732;SDS011;7457;50.960;6.830;2022-09-01T01:00:10;6.70;;;4.25;;
14732;SDS011;7457;50.960;6.830;2022-09-01T01:02:42;4.70;;;4.30;;
14732;SDS011;7457;50.960;6.830;2022-09-01T01:05:09;5.53;;;4.50;;
14732;SDS011;7457;50.960;6.830;2022-09-01T01:07:36;5.00;;;4.45;;
14732;SDS011;7457;50.960;6.830;2022-09-01T01:10:09;6.57;;;4.60;;
14732;SDS011;7457;50.960;6.830;2022-09-01T01:12:37;4.88;;;4.32;;
14732;SDS011;7457;50.960;6.830;2022-09-01T01:15:05;4.57;;;4.18;;
14732;SDS011;7457;50.960;6.830;2022-09-01T01:17:32;5.15;;;4.10;;
14732;SDS011;7457;50.960;6.830;2022-09-01T01:19:59;5.85;;;4.72;;
14732;SDS011;7457;50.960;6.830;2022-09-01T01:25:41;4.88;;;4.32;;
14732;SDS011;7457;50.960;6.830;2022-09-01T01:28:18;4.95;;;4.22;;
14732;SDS011;7457;50.960;6.830;2022-09-01T01:30:52;4.53;;;3.97;;
14732;SDS011;7457;50.960;6.830;2022-09-01T01:33:28;4.65;;;4.25;;
14732;SDS011;7457;50.960;6.830;2022-09-01T01:36:14;5.97;;;4.35;;
14732;SDS011;7457;50.960;6.830;2022-09-01T01:38:56;5.22;;;4.70;;
14732;SDS011;7457;50.960;6.830;2022-09-01T01:41:26;8.60;;;4.72;;
14732;SDS011;7457;50.960;6.830;2022-09-01T01:43:54;6.55;;;4.90;;
14732;SDS011;7457;50.960;6.830;2022-09-01T01:46:22;5.10;;;4.55;;
14732;SDS011;7457;50.960;6.830;2022-09-01T01:48:50;6.18;;;4.88;;
14732;SDS011;7457;50.960;6.830;2022-09-01T01:51:16;4.63;;;3.88;;
14732;SDS011;7457;50.960;6.830;2022-09-01T01:53:45;4.97;;;4.47;;
14732;SDS011;7457;50.960;6.830;2022-09-01T01:56:12;5.10;;;4.60;;
14732;SDS011;7457;50.960;6.830;2022-09-01T01:58:37;7.13;;;4.65;;
14732;SDS011;7457;50.960;6.830;2022-09-01T02:01:04;6.18;;;4.85;;
14732;SDS011;7457;50.960;6.830;2022-09-01T02:03:31;7.18;;;4.97;;
14732;SDS011;7457;50.960;6.830;2022-09-01T02:06:02;7.20;;;4.78;;
14732;SDS011;7457;50.960;6.830;2022-09-01T02:08:34;8.13;;;4.88;;
14732;SDS011;7457;50.960;6.830;2022-09-01T02:11:00;5.88;;;4.30;;
14732;SDS011;7457;50.960;6.830;2022-09-01T02:13:27;4.95;;;4.45;;
14732;SDS011;7457;50.960;6.830;2022-09-01T02:15:57;6.95;;;4.75;;
14732;SDS011;7457;50.960;6.830;2022-09-01T02:18:26;7.07;;;4.85;;
14732;SDS011;7457;50.960;6.830;2022-09-01T02:20:55;5.45;;;4.95;;
14732;SDS011;7457;50.960;6.830;2022-09-01T02:23:23;5.53;;;5.03;;
14732;SDS011;7457;50.960;6.830;2022-09-01T02:25:50;6.03;;;5.10;;
14732;SDS011;7457;50.960;6.830;2022-09-01T02:28:18;5.63;;;5.13;;
14732;SDS011;7457;50.960;6.830;2022-09-01T02:30:48;10.85;;;4.60;;
14732;SDS011;7457;50.960;6.830;2022-09-01T02:33:16;5.22;;;4.72;;
14732;SDS011;7457;50.960;6.830;2022-09-01T02:35:46;4.90;;;4.50;;
14732;SDS011;7457;50.960;6.830;2022-09-01T02:38:13;6.80;;;4.95;;
14732;SDS011;7457;50.960;6.830;2022-09-01T02:40:41;5.32;;;4.82;;
14732;SDS011;7457;50.960;6.830;2022-09-01T02:43:11;5.20;;;4.55;;
14732;SDS011;7457;50.960;6.830;2022-09-01T02:45:40;7.45;;;4.97;;
14732;SDS011;7457;50.960;6.830;2022-09-01T02:48:08;5.57;;;5.07;;
14732;SDS011;7457;50.960;6.830;2022-09-01T02:50:38;5.78;;;4.95;;
14732;SDS011;7457;50.960;6.830;2022-09-01T02:53:06;6.30;;;4.68;;
14732;SDS011;7457;50.960;6.830;2022-09-01T02:55:40;7.00;;;4.63;;
14732;SDS011;7457;50.960;6.830;2022-09-01T02:58:06;6.03;;;4.60;;
14732;SDS011;7457;50.960;6.830;2022-09-01T03:00:40;6.32;;;4.85;;
14732;SDS011;7457;50.960;6.830;2022-09-01T03:03:07;7.25;;;5.05;;
14732;SDS011;7457;50.960;6.830;2022-09-01T03:05:34;5.82;;;5.00;;
14732;SDS011;7457;50.960;6.830;2022-09-01T03:08:04;5.43;;;4.93;;
14732;SDS011;7457;50.960;6.830;2022-09-01T03:10:35;5.90;;;4.93;;
14732;SDS011;7457;50.960;6.830;2022-09-01T03:13:06;5.53;;;4.93;;
14732;SDS011;7457;50.960;6.830;2022-09-01T03:15:35;7.82;;;4.93;;
14732;SDS011;7457;50.960;6.830;2022-09-01T03:18:02;8.45;;;4.70;;
14732;SDS011;7457;50.960;6.830;2022-09-01T03:20:29;5.53;;;4.70;;
14732;SDS011;7457;50.960;6.830;2022-09-01T03:23:00;5.88;;;4.97;;
14732;SDS011;7457;50.960;6.830;2022-09-01T03:25:27;4.88;;;4.47;;
14732;SDS011;7457;50.960;6.830;2022-09-01T03:27:54;5.00;;;4.47;;
14732;SDS011;7457;50.960;6.830;2022-09-01T03:30:23;6.78;;;4.97;;
14732;SDS011;7457;50.960;6.830;2022-09-01T03:32:50;5.03;;;4.55;;
14732;SDS011;7457;50.960;6.830;2022-09-01T03:35:16;6.90;;;4.18;;
14732;SDS011;7457;50.960;6.830;2022-09-01T03:37:42;5.18;;;4.18;;
14732;SDS011;7457;50.960;6.830;2022-09-01T03:40:08;5.60;;;4.85;;
14732;SDS011;7457;50.960;6.830;2022-09-01T03:42:35;4.15;;;3.75;;
14732;SDS011;7457;50.960;6.830;2022-09-01T03:45:02;4.97;;;4.47;;
14732;SDS011;7457;50.960;6.830;2022-09-01T03:47:36;6.38;;;5.15;;
14732;SDS011;7457;50.960;6.830;2022-09-01T03:50:04;5.90;;;5.00;;
14732;SDS011;7457;50.960;6.830;2022-09-01T03:52:32;6.45;;;4.80;;
14732;SDS011;7457;50.960;6.830;2022-09-01T03:54:58;5.43;;;4.93;;
14732;SDS011;7457;50.960;6.830;2022-09-01T03:57:24;6.10;;;4.95;;
14732;SDS011;7457;50.960;6.830;2022-09-01T03:59:51;6.25;;;4.57;;
14732;SDS011;7457;50.960;6.830;2022-09-01T04:02:18;6.07;;;5.05;;
14732;SDS011;7457;50.960;6.830;2022-09-01T04:04:44;5.50;;;4.90;;
14732;SDS011;7457;50.960;6.830;2022-09-01T04:07:10;7.20;;;5.57;;
14732;SDS011;7457;50.960;6.830;2022-09-01T04:09:35;6.18;;;5.57;;
14732;SDS011;7457;50.960;6.830;2022-09-01T04:12:02;5.43;;;4.93;;
14732;SDS011;7457;50.960;6.830;2022-09-01T04:14:33;7.32;;;5.30;;
14732;SDS011;7457;50.960;6.830;2022-09-01T04:16:59;6.70;;;4.88;;
14732;SDS011;7457;50.960;6.830;2022-09-01T04:19:42;7.50;;;5.25;;
14732;SDS011;7457;50.960;6.830;2022-09-01T04:22:13;8.23;;;5.75;;
14732;SDS011;7457;50.960;6.830;2022-09-01T04:24:41;6.40;;;5.50;;
14732;SDS011;7457;50.960;6.830;2022-09-01T04:27:09;8.43;;;6.55;;
14732;SDS011;7457;50.960;6.830;2022-09-01T04:29:35;7.43;;;5.82;;
14732;SDS011;7457;50.960;6.830;2022-09-01T04:32:02;6.40;;;5.72;;
14732;SDS011;7457;50.960;6.830;2022-09-01T04:34:31;5.78;;;5.03;;
14732;SDS011;7457;50.960;6.830;2022-09-01T04:37:01;6.03;;;5.40;;
14732;SDS011;7457;50.960;6.830;2022-09-01T04:39:32;5.65;;;5.15;;
14732;SDS011;7457;50.960;6.830;2022-09-01T04:41:57;5.57;;;5.07;;
14732;SDS011;7457;50.960;6.830;2022-09-01T04:44:23;6.65;;;5.50;;
14732;SDS011;7457;50.960;6.830;2022-09-01T04:46:50;6.28;;;5.68;;
14732;SDS011;7457;50.960;6.830;2022-09-01T04:49:17;6.03;;;5.50;;
14732;SDS011;7457;50.960;6.830;2022-09-01T04:51:47;7.18;;;5.70;;
14732;SDS011;7457;50.960;6.830;2022-09-01T04:54:15;7.82;;;5.90;;
14732;SDS011;7457;50.960;6.830;2022-09-01T04:56:42;11.50;;;5.78;;
14732;SDS011;7457;50.960;6.830;2022-09-01T04:59:10;6.95;;;5.55;;
14732;SDS011;7457;50.960;6.830;2022-09-01T05:01:37;6.72;;;5.45;;
14732;SDS011;7457;50.960;6.830;2022-09-01T05:04:11;5.70;;;5.00;;
14732;SDS011;7457;50.960;6.830;2022-09-01T05:06:39;7.85;;;4.88;;
14732;SDS011;7457;50.960;6.830;2022-09-01T05:09:07;10.85;;;5.80;;
14732;SDS011;7457;50.960;6.830;2022-09-01T05:11:35;6.55;;;5.45;;
14732;SDS011;7457;50.960;6.830;2022-09-01T05:14:01;9.32;;;5.35;;
14732;SDS011;7457;50.960;6.830;2022-09-01T05:16:29;6.93;;;5.82;;
14732;SDS011;7457;50.960;6.830;2022-09-01T05:18:54;8.32;;;5.88;;
14732;SDS011;7457;50.960;6.830;2022-09-01T05:21:21;8.02;;;5.90;;
14732;SDS011;7457;50.960;6.830;2022-09-01T05:23:50;7.03;;;5.60;;
14732;SDS011;7457;50.960;6.830;2022-09-01T05:26:19;7.30;;;6.18;;
14732;SDS011;7457;50.960;6.830;2022-09-01T05:28:48;6.93;;;5.70;;
14732;SDS011;7457;50.960;6.830;2022-09-01T05:31:17;5.90;;;5.30;;
14732;SDS011;7457;50.960;6.830;2022-09-01T05:33:45;8.23;;;5.53;;
14732;SDS011;7457;50.960;6.830;2022-09-01T05:36:13;6.22;;;5.50;;
14732;SDS011;7457;50.960;6.830;2022-09-01T05:38:41;8.10;;;6.13;;
14732;SDS011;7457;50.960;6.830;2022-09-01T05:41:09;6.25;;;5.53;;
14732;SDS011;7457;50.960;6.830;2022-09-01T05:43:39;6.63;;;5.50;;
14732;SDS011;7457;50.960;6.830;2022-09-01T05:46:11;8.23;;;5.80;;
14732;SDS011;7457;50.960;6.830;2022-09-01T05:48:40;6.97;;;5.55;;
14732;SDS011;7457;50.960;6.830;2022-09-01T05:51:08;5.60;;;5.10;;
14732;SDS011;7457;50.960;6.830;2022-09-01T05:53:34;7.47;;;5.70;;
14732;SDS011;7457;50.960;6.830;2022-09-01T05:56:04;17.35;;;5.72;;
14732;SDS011;7457;50.960;6.830;2022-09-01T05:58:33;5.85;;;5.35;;
14732;SDS011;7457;50.960;6.830;2022-09-01T06:01:00;7.38;;;5.18;;
14732;SDS011;7457;50.960;6.830;2022-09-01T06:03:26;5.88;;;5.38;;
14732;SDS011;7457;50.960;6.830;2022-09-01T06:05:53;6.50;;;5.47;;
14732;SDS011;7457;50.960;6.830;2022-09-01T06:08:23;5.80;;;5.20;;
14732;SDS011;7457;50.960;6.830;2022-09-01T06:10:49;8.10;;;5.75;;
14732;SDS011;7457;50.960;6.830;2022-09-01T06:13:16;8.57;;;5.60;;
14732;SDS011;7457;50.960;6.830;2022-09-01T06:15:46;5.75;;;5.03;;
14732;SDS011;7457;50.960;6.830;2022-09-01T06:18:13;5.55;;;5.05;;
14732;SDS011;7457;50.960;6.830;2022-09-01T06:20:39;6.50;;;5.32;;
14732;SDS011;7457;50.960;6.830;2022-09-01T06:23:06;6.28;;;5.22;;
14732;SDS011;7457;50.960;6.830;2022-09-01T06:25:35;12.00;;;5.32;;
14732;SDS011;7457;50.960;6.830;2022-09-01T06:28:01;7.82;;;5.20;;
14732;SDS011;7457;50.960;6.830;2022-09-01T06:30:28;7.72;;;5.03;;
14732;SDS011;7457;50.960;6.830;2022-09-01T06:32:54;8.48;;;4.82;;
14732;SDS011;7457;50.960;6.830;2022-09-01T06:35:21;9.32;;;5.65;;
14732;SDS011;7457;50.960;6.830;2022-09-01T06:37:53;7.53;;;5.13;;
14732;SDS011;7457;50.960;6.830;2022-09-01T06:40:20;11.55;;;5.80;;
14732;SDS011;7457;50.960;6.830;2022-09-01T06:42:49;9.02;;;6.00;;
14732;SDS011;7457;50.960;6.830;2022-09-01T06:45:18;5.93;;;5.22;;
14732;SDS011;7457;50.960;6.830;2022-09-01T06:47:46;6.32;;;5.18;;
14732;SDS011;7457;50.960;6.830;2022-09-01T06:50:15;7.50;;;5.05;;
14732;SDS011;7457;50.960;6.830;2022-09-01T06:52:43;6.40;;;4.75;;
14732;SDS011;7457;50.960;6.830;2022-09-01T06:55:13;5.63;;;4.80;;
14732;SDS011;7457;50.960;6.830;2022-09-01T06:57:40;7.38;;;4.45;;
14732;SDS011;7457;50.960;6.830;2022-09-01T07:00:10;7.60;;;4.28;;
14732;SDS011;7457;50.960;6.830;2022-09-01T07:02:51;4.60;;;3.35;;
14732;SDS011;7457;50.960;6.830;2022-09-01T07:05:19;4.18;;;3.20;;
14732;SDS011;7457;50.960;6.830;2022-09-01T07:07:48;3.53;;;3.15;;
14732;SDS011;7457;50.960;6.830;2022-09-01T07:10:19;5.22;;;3.22;;
14732;SDS011;7457;50.960;6.830;2022-09-01T07:12:52;3.15;;;2.60;;
14732;SDS011;7457;50.960;6.830;2022-09-01T07:15:20;4.18;;;2.58;;
14732;SDS011;7457;50.960;6.830;2022-09-01T07:17:50;2.95;;;2.58;;
14732;SDS011;7457;50.960;6.830;2022-09-01T07:20:17;3.20;;;2.85;;
14732;SDS011;7457;50.960;6.830;2022-09-01T07:22:47;3.08;;;2.33;;
14732;SDS011;7457;50.960;6.830;2022-09-01T07:25:13;4.85;;;2.40;;
14732;SDS011;7457;50.960;6.830;2022-09-01T07:27:40;3.58;;;1.77;;
14732;SDS011;7457;50.960;6.830;2022-09-01T07:30:15;3.58;;;1.50;;
14732;SDS011;7457;50.960;6.830;2022-09-01T07:32:43;1.95;;;1.42;;
14732;SDS011;7457;50.960;6.830;2022-09-01T07:35:10;3.17;;;1.85;;
14732;SDS011;7457;50.960;6.830;2022-09-01T07:37:37;1.70;;;1.40;;
14732;SDS011;7457;50.960;6.830;2022-09-01T07:40:07;2.83;;;1.95;;
14732;SDS011;7457;50.960;6.830;2022-09-01T07:42:35;2.50;;;1.80;;
14732;SDS011;7457;50.960;6.830;2022-09-01T07:45:04;3.10;;;1.60;;
14732;SDS011;7457;50.960;6.830;2022-09-01T07:47:34;1.90;;;1.70;;
14732;SDS011;7457;50.960;6.830;2022-09-01T07:50:02;3.42;;;1.73;;
14732;SDS011;7457;50.960;6.830;2022-09-01T07:52:32;4.55;;;2.10;;
14732;SDS011;7457;50.960;6.830;2022-09-01T07:54:59;4.20;;;1.67;;
14732;SDS011;7457;50.960;6.830;2022-09-01T07:57:25;4.70;;;1.80;;
14732;SDS011;7457;50.960;6.830;2022-09-01T07:59:51;2.05;;;1.70;;
14732;SDS011;7457;50.960;6.830;2022-09-01T08:02:19;3.33;;;1.67;;
14732;SDS011;7457;50.960;6.830;2022-09-01T08:04:45;2.15;;;1.80;;
14732;SDS011;7457;50.960;6.830;2022-09-01T08:07:12;2.40;;;1.80;;
14732;SDS011;7457;50.960;6.830;2022-09-01T08:09:38;2.60;;;1.75;;
14732;SDS011;7457;50.960;6.830;2022-09-01T08:12:05;2.17;;;1.98;;
14732;SDS011;7457;50.960;6.830;2022-09-01T08:14:32;6.13;;;2.60;;
14732;SDS011;7457;50.960;6.830;2022-09-01T08:16:57;4.05;;;2.17;;
14732;SDS011;7457;50.960;6.830;2022-09-01T08:19:23;2.78;;;2.33;;
14732;SDS011;7457;50.960;6.830;2022-09-01T08:21:49;2.25;;;1.83;;
14732;SDS011;7457;50.960;6.830;2022-09-01T08:24:14;2.65;;;1.88;;
14732;SDS011;7457;50.960;6.830;2022-09-01T08:26:40;4.10;;;1.80;;
14732;SDS011;7457;50.960;6.830;2022-09-01T08:29:05;2.10;;;1.90;;
14732;SDS011;7457;50.960;6.830;2022-09-01T08:31:31;2.55;;;1.70;;
14732;SDS011;7457;50.960;6.830;2022-09-01T08:33:57;2.50;;;1.67;;
14732;SDS011;7457;50.960;6.830;2022-09-01T08:36:24;2.33;;;1.85;;
14732;SDS011;7457;50.960;6.830;2022-09-01T08:38:49;2.03;;;1.70;;
14732;SDS011;7457;50.960;6.830;2022-09-01T08:43:57;3.08;;;1.83;;
14732;SDS011;7457;50.960;6.830;2022-09-01T08:46:33;6.68;;;1.73;;
14732;SDS011;7457;50.960;6.830;2022-09-01T08:49:04;2.92;;;1.95;;
14732;SDS011;7457;50.960;6.830;2022-09-01T08:51:39;2.63;;;1.90;;
14732;SDS011;7457;50.960;6.830;2022-09-01T08:56:46;4.70;;;1.60;;
14732;SDS011;7457;50.960;6.830;2022-09-01T08:59:15;2.72;;;1.77;;
14732;SDS011;7457;50.960;6.830;2022-09-01T09:02:05;1.70;;;1.45;;
14732;SDS011;7457;50.960;6.830;2022-09-01T09:04:51;1.88;;;1.50;;
14732;SDS011;7457;50.960;6.830;2022-09-01T09:09:50;2.35;;;1.60;;
14732;SDS011;7457;50.960;6.830;2022-09-01T09:12:29;3.55;;;1.67;;
14732;SDS011;7457;50.960;6.830;2022-09-01T09:17:34;3.90;;;1.17;;
14732;SDS011;7457;50.960;6.830;2022-09-01T09:20:05;4.15;;;1.60;;
14732;SDS011;7457;50.960;6.830;2022-09-01T09:22:32;3.65;;;1.45;;
14732;SDS011;7457;50.960;6.830;2022-09-01T09:25:17;3.70;;;1.95;;
14732;SDS011;7457;50.960;6.830;2022-09-01T09:27:43;2.65;;;1.58;;
14732;SDS011;7457;50.960;6.830;2022-09-01T09:30:13;3.13;;;1.65;;
14732;SDS011;7457;50.960;6.830;2022-09-01T09:32:51;4.05;;;1.70;;
14732;SDS011;7457;50.960;6.830;2022-09-01T09:35:36;2.83;;;1.98;;
14732;SDS011;7457;50.960;6.830;2022-09-01T09:43:23;2.00;;;1.80;;
14732;SDS011;7457;50.960;6.830;2022-09-01T09:45:50;3.05;;;1.40;;
14732;SDS011;7457;50.960;6.830;2022-09-01T09:48:47;3.40;;;1.80;;
14732;SDS011;7457;50.960;6.830;2022-09-01T09:51:15;1.30;;;1.20;;
14732;SDS011;7457;50.960;6.830;2022-09-01T09:53:44;2.30;;;1.40;;
14732;SDS011;7457;50.960;6.830;2022-09-01T09:56:20;2.88;;;1.50;;
14732;SDS011;7457;50.960;6.830;2022-09-01T09:58:48;2.55;;;1.25;;
14732;SDS011;7457;50.960;6.830;2022-09-01T10:03:49;1.52;;;1.02;;
14732;SDS011;7457;50.960;6.830;2022-09-01T10:06:32;1.85;;;1.30;;
14732;SDS011;7457;50.960;6.830;2022-09-01T10:08:59;3.33;;;1.67;;
14732;SDS011;7457;50.960;6.830;2022-09-01T10:11:40;1.88;;;1.65;;
14732;SDS011;7457;50.960;6.830;2022-09-01T10:14:41;1.70;;;1.17;;
14732;SDS011;7457;50.960;6.830;2022-09-01T10:17:11;3.03;;;1.38;;
14732;SDS011;7457;50.960;6.830;2022-09-01T10:19:59;2.17;;;1.30;;
14732;SDS011;7457;50.960;6.830;2022-09-01T10:22:30;2.55;;;1.48;;
14732;SDS011;7457;50.960;6.830;2022-09-01T10:24:57;1.50;;;1.02;;
14732;SDS011;7457;50.960;6.830;2022-09-01T10:27:26;1.67;;;1.10;;
14732;SDS011;7457;50.960;6.830;2022-09-01T10:29:56;3.65;;;1.30;;
14732;SDS011;7457;50.960;6.830;2022-09-01T10:32:59;3.30;;;1.30;;
14732;SDS011;7457;50.960;6.830;2022-09-01T10:35:25;1.33;;;1.23;;
14732;SDS011;7457;50.960;6.830;2022-09-01T10:37:56;1.88;;;1.63;;
14732;SDS011;7457;50.960;6.830;2022-09-01T10:40:40;2.13;;;1.15;;
14732;SDS011;7457;50.960;6.830;2022-09-01T10:45:59;2.40;;;1.40;;
14732;SDS011;7457;50.960;6.830;2022-09-01T10:48:34;4.30;;;1.52;;
14732;SDS011;7457;50.960;6.830;2022-09-01T10:53:38;1.80;;;1.10;;
14732;SDS011;7457;50.960;6.830;2022-09-01T10:58:56;1.40;;;1.20;;
14732;SDS011;7457;50.960;6.830;2022-09-01T11:04:05;1.40;;;1.30;;
14732;SDS011;7457;50.960;6.830;2022-09-01T11:09:21;1.42;;;1.33;;
14732;SDS011;7457;50.960;6.830;2022-09-01T11:14:46;1.60;;;1.50;;
14732;SDS011;7457;50.960;6.830;2022-09-01T11:22:42;2.78;;;1.67;;
14732;SDS011;7457;50.960;6.830;2022-09-01T11:30:55;2.20;;;1.50;;
14732;SDS011;7457;50.960;6.830;2022-09-01T11:35:56;1.27;;;1.20;;
14732;SDS011;7457;50.960;6.830;2022-09-01T11:38:25;1.65;;;1.35;;
14732;SDS011;7457;50.960;6.830;2022-09-01T11:40:55;3.13;;;1.80;;
14732;SDS011;7457;50.960;6.830;2022-09-01T11:43:21;3.05;;;1.45;;
14732;SDS011;7457;50.960;6.830;2022-09-01T11:45:53;1.77;;;1.52;;
14732;SDS011;7457;50.960;6.830;2022-09-01T11:48:46;1.70;;;1.60;;
14732;SDS011;7457;50.960;6.830;2022-09-01T11:51:12;1.67;;;1.38;;
14732;SDS011;7457;50.960;6.830;2022-09-01T11:53:38;4.38;;;1.60;;
14732;SDS011;7457;50.960;6.830;2022-09-01T11:56:14;1.90;;;1.60;;
14732;SDS011;7457;50.960;6.830;2022-09-01T11:58:40;3.58;;;1.50;;
14732;SDS011;7457;50.960;6.830;2022-09-01T12:01:14;1.67;;;1.58;;
14732;SDS011;7457;50.960;6.830;2022-09-01T12:03:54;3.42;;;1.77;;
14732;SDS011;7457;50.960;6.830;2022-09-01T12:06:22;1.85;;;1.75;;
14732;SDS011;7457;50.960;6.830;2022-09-01T12:08:50;2.10;;;2.00;;
14732;SDS011;7457;50.960;6.830;2022-09-01T12:11:29;2.08;;;1.70;;
14732;SDS011;7457;50.960;6.830;2022-09-01T12:16:22;2.10;;;1.80;;
14732;SDS011;7457;50.960;6.830;2022-09-01T12:18:49;3.53;;;1.95;;
14732;SDS011;7457;50.960;6.830;2022-09-01T12:21:38;2.70;;;1.83;;
14732;SDS011;7457;50.960;6.830;2022-09-01T12:26:45;2.70;;;2.17;;
14732;SDS011;7457;50.960;6.830;2022-09-01T12:29:12;2.08;;;1.92;;
14732;SDS011;7457;50.960;6.830;2022-09-01T12:31:39;2.45;;;2.15;;
14732;SDS011;7457;50.960;6.830;2022-09-01T12:34:22;2.78;;;2.22;;
14732;SDS011;7457;50.960;6.830;2022-09-01T12:37:01;3.53;;;2.10;;
14732;SDS011;7457;50.960;6.830;2022-09-01T12:39:33;2.40;;;2.20;;
14732;SDS011;7457;50.960;6.830;2022-09-01T12:42:01;2.50;;;2.15;;
14732;SDS011;7457;50.960;6.830;2022-09-01T12:47:05;2.28;;;2.08;;
14732;SDS011;7457;50.960;6.830;2022-09-01T12:49:37;2.72;;;2.10;;
14732;SDS011;7457;50.960;6.830;2022-09-01T12:58:08;2.22;;;2.03;;
14732;SDS011;7457;50.960;6.830;2022-09-01T13:00:23;2.28;;;2.10;;
14732;SDS011;7457;50.960;6.830;2022-09-01T13:03:02;4.22;;;2.30;;
14732;SDS011;7457;50.960;6.830;2022-09-01T13:08:05;2.00;;;1.90;;
14732;SDS011;7457;50.960;6.830;2022-09-01T13:10:34;2.78;;;2.42;;
14732;SDS011;7457;50.960;6.830;2022-09-01T13:13:08;2.53;;;2.15;;
14732;SDS011;7457;50.960;6.830;2022-09-01T13:15:37;2.30;;;2.17;;
14732;SDS011;7457;50.960;6.830;2022-09-01T13:18:07;2.38;;;2.15;;
14732;SDS011;7457;50.960;6.830;2022-09-01T13:20:33;2.63;;;2.35;;
14732;SDS011;7457;50.960;6.830;2022-09-01T13:23:00;2.53;;;2.10;;
14732;SDS011;7457;50.960;6.830;2022-09-01T13:25:27;2.75;;;2.20;;
14732;SDS011;7457;50.960;6.830;2022-09-01T13:27:53;4.50;;;2.33;;
14732;SDS011;7457;50.960;6.830;2022-09-01T13:30:20;2.40;;;2.20;;
14732;SDS011;7457;50.960;6.830;2022-09-01T13:32:48;2.55;;;2.10;;
14732;SDS011;7457;50.960;6.830;2022-09-01T13:35:16;2.78;;;2.00;;
14732;SDS011;7457;50.960;6.830;2022-09-01T13:37:44;2.63;;;2.28;;
14732;SDS011;7457;50.960;6.830;2022-09-01T13:40:11;3.78;;;2.00;;
14732;SDS011;7457;50.960;6.830;2022-09-01T13:42:50;2.65;;;2.45;;
14732;SDS011;7457;50.960;6.830;2022-09-01T13:45:18;2.45;;;2.22;;
14732;SDS011;7457;50.960;6.830;2022-09-01T13:47:46;8.30;;;2.60;;
14732;SDS011;7457;50.960;6.830;2022-09-01T13:50:14;2.88;;;2.58;;
14732;SDS011;7457;50.960;6.830;2022-09-01T13:52:42;2.67;;;2.20;;
14732;SDS011;7457;50.960;6.830;2022-09-01T13:55:13;2.67;;;2.10;;
14732;SDS011;7457;50.960;6.830;2022-09-01T13:57:41;5.13;;;2.95;;
14732;SDS011;7457;50.960;6.830;2022-09-01T14:00:09;3.60;;;2.75;;
14732;SDS011;7457;50.960;6.830;2022-09-01T14:02:38;2.70;;;2.50;;
14732;SDS011;7457;50.960;6.830;2022-09-01T14:05:04;3.63;;;2.40;;
14732;SDS011;7457;50.960;6.830;2022-09-01T14:07:31;4.97;;;2.42;;
14732;SDS011;7457;50.960;6.830;2022-09-01T14:09:56;3.10;;;2.40;;
14732;SDS011;7457;50.960;6.830;2022-09-01T14:12:22;3.00;;;2.67;;
14732;SDS011;7457;50.960;6.830;2022-09-01T14:14:48;4.63;;;2.67;;
14732;SDS011;7457;50.960;6.830;2022-09-01T14:17:14;2.67;;;2.47;;
14732;SDS011;7457;50.960;6.830;2022-09-01T14:19:39;2.92;;;2.70;;
14732;SDS011;7457;50.960;6.830;2022-09-01T14:22:06;4.60;;;2.70;;
14732;SDS011;7457;50.960;6.830;2022-09-01T14:24:34;2.85;;;2.65;;
14732;SDS011;7457;50.960;6.830;2022-09-01T14:27:00;4.78;;;2.78;;
14732;SDS011;7457;50.960;6.830;2022-09-01T14:29:26;2.72;;;2.50;;
14732;SDS011;7457;50.960;6.830;2022-09-01T14:31:53;4.15;;;2.50;;
14732;SDS011;7457;50.960;6.830;2022-09-01T14:34:22;2.38;;;2.17;;
14732;SDS011;7457;50.960;6.830;2022-09-01T14:36:51;3.80;;;2.95;;
14732;SDS011;7457;50.960;6.830;2022-09-01T14:39:22;4.22;;;2.67;;
14732;SDS011;7457;50.960;6.830;2022-09-01T14:41:48;4.60;;;2.40;;
14732;SDS011;7457;50.960;6.830;2022-09-01T14:44:14;3.00;;;2.65;;
14732;SDS011;7457;50.960;6.830;2022-09-01T14:46:40;3.03;;;2.80;;
14732;SDS011;7457;50.960;6.830;2022-09-01T14:49:06;3.15;;;2.85;;
14732;SDS011;7457;50.960;6.830;2022-09-01T14:51:32;3.88;;;2.80;;
14732;SDS011;7457;50.960;6.830;2022-09-01T14:53:58;3.00;;;2.70;;
14732;SDS011;7457;50.960;6.830;2022-09-01T14:56:24;2.70;;;2.45;;
14732;SDS011;7457;50.960;6.830;2022-09-01T14:58:50;2.63;;;2.40;;
14732;SDS011;7457;50.960;6.830;2022-09-01T15:01:18;3.97;;;2.53;;
14732;SDS011;7457;50.960;6.830;2022-09-01T15:03:45;3.88;;;2.70;;
14732;SDS011;7457;50.960;6.830;2022-09-01T15:06:12;2.95;;;2.65;;
14732;SDS011;7457;50.960;6.830;2022-09-01T15:08:39;2.97;;;2.78;;
14732;SDS011;7457;50.960;6.830;2022-09-01T15:11:10;2.67;;;2.47;;
14732;SDS011;7457;50.960;6.830;2022-09-01T15:13:38;3.83;;;2.80;;
14732;SDS011;7457;50.960;6.830;2022-09-01T15:16:04;7.53;;;2.92;;
14732;SDS011;7457;50.960;6.830;2022-09-01T15:18:38;2.53;;;2.33;;
14732;SDS011;7457;50.960;6.830;2022-09-01T15:21:04;3.78;;;2.92;;
14732;SDS011;7457;50.960;6.830;2022-09-01T15:23:29;3.08;;;2.78;;
14732;SDS011;7457;50.960;6.830;2022-09-01T15:25:55;2.80;;;2.60;;
14732;SDS011;7457;50.960;6.830;2022-09-01T15:28:24;2.72;;;2.50;;
14732;SDS011;7457;50.960;6.830;2022-09-01T15:30:50;2.85;;;2.60;;
14732;SDS011;7457;50.960;6.830;2022-09-01T15:33:18;2.85;;;2.60;;
14732;SDS011;7457;50.960;6.830;2022-09-01T15:35:44;3.78;;;2.53;;
14732;SDS011;7457;50.960;6.830;2022-09-01T15:38:10;2.70;;;2.50;;
14732;SDS011;7457;50.960;6.830;2022-09-01T15:40:39;3.20;;;2.33;;
14732;SDS011;7457;50.960;6.830;2022-09-01T15:43:06;3.33;;;2.70;;
14732;SDS011;7457;50.960;6.830;2022-09-01T15:45:31;2.72;;;2.53;;
14732;SDS011;7457;50.960;6.830;2022-09-01T15:47:57;3.08;;;2.78;;
14732;SDS011;7457;50.960;6.830;2022-09-01T15:50:23;2.60;;;2.40;;
14732;SDS011;7457;50.960;6.830;2022-09-01T15:52:54;4.68;;;2.28;;
14732;SDS011;7457;50.960;6.830;2022-09-01T15:55:26;2.80;;;2.60;;
14732;SDS011;7457;50.960;6.830;2022-09-01T15:57:53;3.28;;;2.70;;
14732;SDS011;7457;50.960;6.830;2022-09-01T16:00:19;5.80;;;3.42;;
14732;SDS011;7457;50.960;6.830;2022-09-01T16:02:45;2.90;;;2.70;;
14732;SDS011;7457;50.960;6.830;2022-09-01T16:05:11;2.55;;;2.35;;
14732;SDS011;7457;50.960;6.830;2022-09-01T16:07:38;8.52;;;2.47;;
14732;SDS011;7457;50.960;6.830;2022-09-01T16:10:04;3.00;;;2.60;;
14732;SDS011;7457;50.960;6.830;2022-09-01T16:12:35;2.72;;;2.47;;
14732;SDS011;7457;50.960;6.830;2022-09-01T16:15:01;2.65;;;2.10;;
14732;SDS011;7457;50.960;6.830;2022-09-01T16:20:13;2.53;;;2.15;;
14732;SDS011;7457;50.960;6.830;2022-09-01T16:22:53;2.55;;;2.05;;